Time;durP1;ratioP1;P1;durP2;ratioP2;P2;SDS_P1;SDS_P2;PMS_P1;PMS_P2;Temp;Humidity;BMP_temperature;BMP_pressure;BME280_temperature;BME280_humidity;BME280_pressure;Samples;Min_cycle;Max_cycle;Signal;HPM_P1;HPM_P2
2021/06/26 00:01:02;;;;;;;32.70;25.62;;;;;;;18.75;92.56;99110.34;4136624;85;21106;-81
2021/06/26 00:07:15;;;;;;;40.90;23.73;;;;;;;18.74;92.09;99113.70;4177334;83;21495;-81
2021/06/26 00:13:25;;;;;;;36.03;24.57;;;;;;;18.73;92.60;99128.80;4200994;83;21026;-82
2021/06/26 00:19:41;;;;;;;32.45;23.60;;;;;;;18.83;92.54;99139.50;4130311;85;21069;-82
2021/06/26 00:25:52;;;;;;;34.75;24.67;;;;;;;18.83;92.35;99138.11;4189483;83;21026;-81
2021/06/26 00:31:57;;;;;;;34.67;22.20;;;;;;;18.87;92.36;99138.05;4213883;82;21519;-81
2021/06/26 00:38:06;;;;;;;39.40;22.98;;;;;;;18.80;92.39;99139.56;4171737;84;21062;-81
2021/06/26 00:44:25;;;;;;;42.00;29.50;;;;;;;18.82;92.44;99133.00;4176312;84;21612;-82
2021/06/26 00:50:30;;;;;;;43.13;27.05;;;;;;;18.81;92.18;99151.62;4148580;84;21091;-82
2021/06/26 00:56:48;;;;;;;39.63;25.37;;;;;;;18.76;92.54;99154.91;4144942;84;21072;-83
2021/06/26 01:02:57;;;;;;;43.43;28.43;;;;;;;18.73;92.26;99156.52;4165439;84;21036;-82
2021/06/26 01:09:04;;;;;;;36.90;25.10;;;;;;;18.56;92.37;99142.39;4172748;84;21051;-81
2021/06/26 01:15:10;;;;;;;37.00;26.62;;;;;;;18.52;92.74;99134.77;4148642;84;21518;-82
2021/06/26 01:21:23;;;;;;;32.30;22.58;;;;;;;18.61;92.70;99152.20;4195743;83;21001;-81
2021/06/26 01:27:43;;;;;;;32.38;24.40;;;;;;;18.59;92.62;99146.30;4195111;83;21068;-83
2021/06/26 01:33:56;;;;;;;33.20;24.15;;;;;;;18.56;92.59;99135.46;4206930;83;21064;-82
2021/06/26 01:40:10;;;;;;;30.70;22.42;;;;;;;18.46;92.68;99120.42;4182369;84;21002;-81
2021/06/26 01:46:11;;;;;;;38.15;22.60;;;;;;;18.53;92.83;99128.00;4208169;83;20966;-82
2021/06/26 01:52:13;;;;;;;33.00;22.00;;;;;;;18.57;92.86;99134.25;4159044;84;21021;-81
2021/06/26 01:58:20;;;;;;;37.45;25.08;;;;;;;18.64;92.83;99133.33;4165989;83;21013;-81
2021/06/26 02:04:26;;;;;;;28.80;22.55;;;;;;;18.57;92.33;99132.09;4162909;84;21780;-82
2021/06/26 02:10:50;;;;;;;35.83;22.20;;;;;;;18.54;92.84;99126.78;4147490;84;21502;-80
2021/06/26 02:17:06;;;;;;;30.00;22.67;;;;;;;18.45;92.69;99129.33;4154627;83;21045;-81
2021/06/26 02:23:33;;;;;;;38.48;22.05;;;;;;;18.31;92.87;99128.17;4109802;84;21022;-82
2021/06/26 02:29:40;;;;;;;31.15;20.88;;;;;;;18.26;93.23;99132.81;4099229;85;21540;-83
2021/06/26 02:35:54;;;;;;;32.58;20.90;;;;;;;18.40;93.34;99133.97;4167274;83;21614;-82
2021/06/26 02:42:01;;;;;;;32.58;19.95;;;;;;;18.36;93.29;99136.01;4158321;84;21673;-81
2021/06/26 02:48:07;;;;;;;27.25;19.30;;;;;;;18.41;93.34;99143.88;4171063;84;21537;-81
2021/06/26 02:54:23;;;;;;;30.37;18.37;;;;;;;18.48;93.29;99156.20;4150798;84;21041;-80
2021/06/26 03:00:27;;;;;;;22.75;17.60;;;;;;;18.54;93.15;99150.97;4168214;84;21071;-82
2021/06/26 03:06:45;;;;;;;34.25;17.55;;;;;;;18.51;92.93;99153.97;4168891;84;21768;-81
2021/06/26 03:13:01;;;;;;;22.02;15.23;;;;;;;18.52;92.93;99147.83;4160934;83;21025;-81
2021/06/26 03:19:15;;;;;;;24.73;17.70;;;;;;;18.47;92.65;99150.48;4155798;84;21606;-82
2021/06/26 03:25:42;;;;;;;27.55;19.07;;;;;;;18.48;92.65;99166.50;4185704;83;21033;-81
2021/06/26 03:32:00;;;;;;;27.50;20.95;;;;;;;18.50;92.68;99168.25;4109341;85;21968;-82
2021/06/26 03:37:57;;;;;;;24.20;18.85;;;;;;;18.45;92.49;99167.34;4176154;83;21076;-82
2021/06/26 03:44:01;;;;;;;27.80;22.22;;;;;;;18.48;92.73;99170.06;4158732;83;21474;-82
2021/06/26 03:50:11;;;;;;;29.90;22.13;;;;;;;18.48;92.48;99165.91;4192999;83;21001;-83
2021/06/26 03:56:21;;;;;;;34.20;20.82;;;;;;;18.43;92.64;99169.16;4190781;83;21034;-82
2021/06/26 04:02:30;;;;;;;29.07;19.95;;;;;;;18.44;92.58;99172.72;4115553;85;21669;-82
2021/06/26 04:08:36;;;;;;;25.10;18.45;;;;;;;18.41;92.64;99171.59;4176369;83;21739;-81
2021/06/26 04:14:43;;;;;;;32.60;18.92;;;;;;;18.38;92.76;99172.44;4179305;83;21054;-82
2021/06/26 04:21:09;;;;;;;22.95;16.12;;;;;;;18.47;92.80;99158.02;4105626;84;2586549;-82
2021/06/26 04:27:00;;;;;;;24.00;16.15;;;;;;;18.57;92.72;99161.20;4145780;84;21760;-82
2021/06/26 04:33:14;;;;;;;20.20;15.98;;;;;;;18.68;92.81;99161.17;4157844;84;21880;-82
2021/06/26 04:39:23;;;;;;;22.32;13.78;;;;;;;18.69;92.24;99163.34;4188194;83;21004;-82
2021/06/26 04:45:24;;;;;;;16.82;14.28;;;;;;;18.74;92.37;99151.77;4205967;83;21022;-82
2021/06/26 04:51:26;;;;;;;19.60;12.45;;;;;;;18.80;92.09;99157.00;4187026;83;20980;-83
2021/06/26 04:57:28;;;;;;;19.10;12.70;;;;;;;18.95;92.25;99159.66;4180100;83;21087;-81
2021/06/26 05:03:29;;;;;;;18.20;13.53;;;;;;;19.09;91.80;99147.52;4184671;83;21047;-83
2021/06/26 05:09:31;;;;;;;16.20;13.28;;;;;;;19.19;91.30;99150.66;4180522;83;21012;-82
2021/06/26 05:15:33;;;;;;;15.58;10.95;;;;;;;19.29;90.99;99168.52;4168866;83;21520;-82
2021/06/26 05:21:34;;;;;;;11.05;9.03;;;;;;;19.24;90.61;99173.75;4196039;83;21044;-82
2021/06/26 05:27:36;;;;;;;13.43;9.43;;;;;;;19.27;90.15;99168.13;4191743;83;22326;-81
2021/06/26 05:33:38;;;;;;;12.82;8.90;;;;;;;19.34;90.25;99172.78;4190282;83;21474;-82
2021/06/26 05:39:40;;;;;;;14.15;7.78;;;;;;;19.38;90.04;99172.88;4193217;83;21005;-83
2021/06/26 05:45:42;;;;;;;11.93;8.45;;;;;;;19.42;90.00;99178.36;4198883;83;21054;-82
2021/06/26 05:51:43;;;;;;;13.68;8.88;;;;;;;19.44;89.72;99188.41;4193106;83;22217;-82
2021/06/26 05:57:45;;;;;;;15.30;9.95;;;;;;;19.56;89.49;99190.55;4190518;83;21045;-81
2021/06/26 06:03:47;;;;;;;14.00;8.88;;;;;;;19.54;89.07;99202.68;4198530;83;21079;-81
2021/06/26 06:09:48;;;;;;;16.55;11.22;;;;;;;19.55;89.02;99211.17;4197302;83;21057;-81
2021/06/26 06:15:50;;;;;;;16.25;11.73;;;;;;;19.62;88.69;99216.59;4189680;83;21006;-81
2021/06/26 06:21:52;;;;;;;13.38;10.80;;;;;;;19.68;88.25;99215.66;4188381;83;21029;-83
2021/06/26 06:27:54;;;;;;;17.50;12.58;;;;;;;19.75;88.42;99217.47;4188112;83;21032;-82
2021/06/26 06:33:55;;;;;;;14.73;12.03;;;;;;;19.58;87.78;99210.31;4191012;83;21104;-80
2021/06/26 06:39:58;;;;;;;16.85;12.60;;;;;;;19.72;87.65;99205.84;4184557;83;21075;-80
2021/06/26 06:46:03;;;;;;;11.97;8.85;;;;;;;19.82;87.42;99204.23;4187790;83;21084;-82
2021/06/26 06:52:03;;;;;;;11.30;9.23;;;;;;;19.94;87.30;99205.53;4183792;83;21363;-81
2021/06/26 06:58:05;;;;;;;11.40;9.85;;;;;;;19.86;86.29;99209.09;4185158;83;21130;-82
2021/06/26 07:04:06;;;;;;;12.37;10.03;;;;;;;19.93;86.25;99206.76;4185628;83;21316;-81
2021/06/26 07:10:09;;;;;;;9.20;7.87;;;;;;;20.03;85.75;99198.16;4186652;83;21139;-81
2021/06/26 07:16:11;;;;;;;12.75;7.15;;;;;;;20.18;85.80;99205.59;4191556;83;21565;-81
2021/06/26 07:22:12;;;;;;;11.53;7.80;;;;;;;20.27;85.57;99207.16;4194283;83;21040;-80
2021/06/26 07:28:13;;;;;;;12.68;8.05;;;;;;;20.32;85.33;99204.45;4128670;84;21541;-81
2021/06/26 07:34:15;;;;;;;7.90;6.15;;;;;;;20.35;84.80;99204.38;4191539;83;21693;-83
2021/06/26 07:40:20;;;;;;;14.98;11.08;;;;;;;20.45;84.45;99196.39;4189469;83;21092;-82
2021/06/26 07:46:23;;;;;;;12.60;10.55;;;;;;;20.53;84.71;99195.59;4169285;83;21984;-81
2021/06/26 07:52:25;;;;;;;14.80;11.12;;;;;;;20.59;84.62;99189.67;4187827;83;119575;-81
2021/06/26 07:58:28;;;;;;;14.05;10.85;;;;;;;20.65;84.55;99187.92;4187367;83;21027;-81
2021/06/26 08:04:29;;;;;;;15.10;10.85;;;;;;;20.62;84.57;99189.59;4186598;83;21074;-80
2021/06/26 08:10:30;;;;;;;17.15;12.03;;;;;;;20.70;84.71;99182.62;4186424;83;21034;-83
2021/06/26 08:16:32;;;;;;;15.58;11.53;;;;;;;20.82;84.58;99188.05;4194089;83;21000;-82
2021/06/26 08:22:33;;;;;;;13.00;9.58;;;;;;;20.90;84.42;99181.87;4191350;83;21607;-82
2021/06/26 08:28:34;;;;;;;15.80;11.40;;;;;;;21.07;84.48;99179.23;4188422;83;21496;-82
2021/06/26 08:34:36;;;;;;;12.80;10.80;;;;;;;21.15;83.66;99183.98;4195044;83;21043;-82
2021/06/26 08:40:37;;;;;;;11.68;10.15;;;;;;;21.17;83.31;99180.91;4189485;83;21098;-80
2021/06/26 08:46:47;;;;;;;11.22;8.68;;;;;;;21.18;83.11;99176.14;4188862;83;21521;-82
2021/06/26 08:52:49;;;;;;;11.53;8.93;;;;;;;21.21;83.15;99169.69;4195314;83;21607;-81
2021/06/26 08:58:50;;;;;;;14.03;10.55;;;;;;;21.36;83.10;99159.71;4261352;82;21382;-80
2021/06/26 09:04:52;;;;;;;12.80;10.38;;;;;;;21.57;82.84;99155.66;4119590;85;21629;-81
2021/06/26 09:10:53;;;;;;;14.23;9.83;;;;;;;21.74;82.43;99149.36;4148632;84;21010;-82
2021/06/26 09:16:55;;;;;;;12.23;10.93;;;;;;;22.08;82.26;99143.91;4126792;84;21062;-82
2021/06/26 09:22:58;;;;;;;11.90;8.38;;;;;;;22.52;81.07;99148.41;4105819;85;21019;-81
2021/06/26 09:29:17;;;;;;;10.00;8.45;;;;;;;22.83;79.94;99140.92;4155317;83;21074;-81
2021/06/26 09:35:18;;;;;;;13.00;8.58;;;;;;;22.87;79.58;99140.20;4265554;82;21076;-81
2021/06/26 09:41:20;;;;;;;15.58;12.80;;;;;;;22.99;79.20;99128.81;4257963;82;21032;-81
2021/06/26 09:47:44;;;;;;;12.58;10.98;;;;;;;23.06;79.11;99132.72;4262191;82;21045;-82
2021/06/26 09:53:54;;;;;;;12.50;11.20;;;;;;;23.45;78.86;99127.87;4260225;82;21004;-81
2021/06/26 09:59:55;;;;;;;14.63;12.25;;;;;;;23.73;77.53;99128.15;4264223;82;21065;-80
2021/06/26 10:06:08;;;;;;;11.57;9.95;;;;;;;23.65;74.43;99126.11;4260147;81;21076;-81
2021/06/26 10:12:20;;;;;;;12.00;10.78;;;;;;;23.58;76.43;99109.00;4222325;82;21080;-81
2021/06/26 10:18:29;;;;;;;12.25;10.18;;;;;;;23.80;75.03;99109.71;4216989;82;21070;-82
2021/06/26 10:24:34;;;;;;;13.20;9.98;;;;;;;24.10;74.95;99110.91;4225793;83;20982;-80
2021/06/26 10:31:11;;;;;;;11.85;10.60;;;;;;;24.58;73.58;99119.21;4221801;83;21034;-82
2021/06/26 10:37:21;;;;;;;11.00;8.25;;;;;;;24.61;73.42;99132.27;4081926;86;21057;-81
2021/06/26 10:43:35;;;;;;;21.37;12.75;;;;;;;24.11;72.43;99155.80;4135952;84;21594;-77
2021/06/26 10:49:38;;;;;;;27.22;10.78;;;;;;;22.84;73.24;99160.64;4218061;83;21050;-77
2021/06/26 10:55:43;;;;;;;24.95;11.40;;;;;;;22.08;74.83;99156.45;4217224;83;21034;-77
2021/06/26 11:02:03;;;;;;;11.68;8.30;;;;;;;21.65;75.76;99150.05;4220654;83;21066;-77
2021/06/26 11:08:16;;;;;;;9.08;6.37;;;;;;;21.47;76.33;99160.94;4225864;83;21041;-77
2021/06/26 11:14:21;;;;;;;7.55;5.85;;;;;;;21.30;76.64;99171.99;4216091;83;21125;-78
2021/06/26 11:20:24;;;;;;;6.62;5.20;;;;;;;21.18;77.48;99164.40;4262278;82;21111;-78
2021/06/26 11:26:25;;;;;;;6.92;6.28;;;;;;;21.22;77.81;99160.89;4251487;82;21554;-77
2021/06/26 11:32:28;;;;;;;6.37;5.75;;;;;;;21.26;78.69;99160.19;4264399;82;21067;-79
2021/06/26 11:38:29;;;;;;;7.55;6.78;;;;;;;21.48;79.28;99151.98;4257684;82;21032;-80
2021/06/26 11:44:37;;;;;;;8.00;7.20;;;;;;;21.71;78.95;99150.26;4162957;83;22304;-78
2021/06/26 11:51:09;;;;;;;10.72;8.83;;;;;;;22.06;79.57;99144.20;4162656;84;21762;-79
2021/06/26 11:57:13;;;;;;;10.20;9.20;;;;;;;22.47;79.35;99144.80;4165160;84;21058;-80
2021/06/26 12:03:18;;;;;;;10.50;9.50;;;;;;;22.35;78.11;99154.59;4163835;83;21581;-80
2021/06/26 12:09:24;;;;;;;9.80;8.03;;;;;;;22.31;78.29;99163.67;4163996;84;21130;-79
2021/06/26 12:15:25;;;;;;;7.23;6.53;;;;;;;22.40;78.31;99148.41;4075342;86;21125;-79
2021/06/26 12:21:31;;;;;;;7.60;6.87;;;;;;;22.67;77.86;99138.33;4108068;85;21010;-79
2021/06/26 12:27:33;;;;;;;8.20;7.20;;;;;;;22.81;77.92;99124.48;4108769;85;21142;-80
2021/06/26 12:33:34;;;;;;;8.08;7.28;;;;;;;22.90;78.27;99122.53;4258917;80;21564;-80
2021/06/26 12:39:35;;;;;;;9.08;8.18;;;;;;;22.79;78.03;99124.14;4255664;82;21057;-81
2021/06/26 12:45:51;;;;;;;9.05;8.10;;;;;;;22.80;78.38;99109.73;4255751;82;21008;-81
2021/06/26 12:51:54;;;;;;;12.20;8.85;;;;;;;22.94;77.55;99096.66;4257230;82;21056;-81
2021/06/26 12:57:57;;;;;;;12.88;10.05;;;;;;;23.08;77.10;99100.95;4262521;82;21084;-80
2021/06/26 13:03:58;;;;;;;12.23;9.30;;;;;;;23.21;76.17;99084.88;4255848;82;21076;-81
2021/06/26 13:10:05;;;;;;;10.75;8.13;;;;;;;23.43;76.64;99077.89;4259970;82;22326;-81
2021/06/26 13:16:07;;;;;;;9.78;6.95;;;;;;;23.67;75.63;99074.71;4260587;82;21044;-81
2021/06/26 13:22:08;;;;;;;8.25;6.33;;;;;;;23.69;74.86;99079.23;4261472;82;21045;-82
2021/06/26 13:28:09;;;;;;;5.97;5.28;;;;;;;23.65;74.33;99070.22;4258418;82;20989;-81
2021/06/26 13:34:11;;;;;;;6.03;5.40;;;;;;;23.76;73.02;99071.33;4265101;82;21024;-81
2021/06/26 13:40:12;;;;;;;8.43;5.90;;;;;;;23.67;72.62;99067.11;4267949;82;21047;-81
2021/06/26 13:46:14;;;;;;;6.70;6.05;;;;;;;23.37;71.92;99071.33;4262950;82;21565;-82
2021/06/26 13:52:15;;;;;;;10.28;6.25;;;;;;;23.00;71.80;99073.92;4267743;82;21047;-81
2021/06/26 13:58:18;;;;;;;14.83;7.33;;;;;;;22.54;71.13;99089.38;4269694;82;21076;-79
2021/06/26 14:04:21;;;;;;;21.42;7.45;;;;;;;21.62;71.51;99134.83;4266966;82;21020;-79
2021/06/26 14:10:23;;;;;;;10.65;6.65;;;;;;;20.33;73.58;99109.50;4262486;82;21060;-79
2021/06/26 14:16:24;;;;;;;10.45;5.47;;;;;;;19.96;74.56;99105.88;4195782;83;21042;-79
2021/06/26 14:22:25;;;;;;;9.25;6.72;;;;;;;19.59;75.62;99095.27;4122780;85;21018;-78
2021/06/26 14:28:27;;;;;;;11.28;5.83;;;;;;;19.25;76.86;99098.38;4124753;85;21048;-78
2021/06/26 14:34:28;;;;;;;13.15;6.55;;;;;;;19.27;77.88;99093.19;4124998;85;21121;-76
2021/06/26 14:40:31;;;;;;;10.18;7.30;;;;;;;19.36;78.74;99096.19;4126565;84;21058;-77
2021/06/26 14:46:32;;;;;;;8.38;6.33;;;;;;;19.58;79.18;99100.63;4102959;85;21069;-76
2021/06/26 14:52:34;;;;;;;6.85;5.55;;;;;;;19.50;79.98;99103.40;4128758;85;21090;-77
2021/06/26 14:58:36;;;;;;;7.95;5.95;;;;;;;19.71;80.67;99100.14;4127603;84;22251;-77
2021/06/26 15:04:39;;;;;;;6.03;5.42;;;;;;;19.90;81.17;99088.95;4130302;84;22126;-77
2021/06/26 15:10:40;;;;;;;9.03;5.70;;;;;;;20.26;81.51;99084.69;4123262;85;21027;-77
2021/06/26 15:16:42;;;;;;;6.72;5.75;;;;;;;20.44;81.61;99080.80;4121982;85;21038;-77
2021/06/26 15:22:43;;;;;;;8.08;5.92;;;;;;;20.56;81.85;99074.53;4127407;85;21069;-77
2021/06/26 15:28:45;;;;;;;9.15;6.55;;;;;;;20.59;82.18;99085.38;4122182;85;21055;-77
2021/06/26 15:34:47;;;;;;;11.75;6.15;;;;;;;20.59;82.55;99090.94;4126413;85;21589;-77
2021/06/26 15:40:49;;;;;;;8.43;5.92;;;;;;;20.52;82.72;99089.13;4124381;84;21649;-76
2021/06/26 15:46:51;;;;;;;10.80;7.03;;;;;;;20.48;82.91;99085.67;4125007;85;21085;-76
2021/06/26 15:52:52;;;;;;;8.58;6.65;;;;;;;20.45;83.11;99096.89;4123010;85;20987;-77
2021/06/26 15:58:55;;;;;;;8.38;6.85;;;;;;;20.40;83.54;99091.86;4121907;85;21425;-77
2021/06/26 16:04:56;;;;;;;7.75;6.72;;;;;;;20.42;83.87;99085.26;4125269;85;21023;-77
2021/06/26 16:10:58;;;;;;;7.85;5.78;;;;;;;20.49;84.07;99090.02;4126327;85;21545;-78
2021/06/26 16:16:59;;;;;;;7.30;6.30;;;;;;;20.50;84.62;99081.06;4125850;84;21074;-78
2021/06/26 16:23:00;;;;;;;13.83;6.72;;;;;;;20.55;84.97;99084.08;4109618;85;21019;-78
2021/06/26 16:29:02;;;;;;;8.15;6.53;;;;;;;20.43;84.96;99089.59;4149104;84;21094;-78
2021/06/26 16:35:07;;;;;;;9.33;4.75;;;;;;;20.37;85.14;99103.25;4253624;82;21215;-78
2021/06/26 16:41:08;;;;;;;7.97;4.60;;;;;;;20.01;85.33;99111.67;4260006;82;21057;-79
2021/06/26 16:47:10;;;;;;;12.90;5.62;;;;;;;19.52;84.83;99100.38;4256916;82;22256;-78
2021/06/26 16:53:23;;;;;;;;;;;;;;;;;;;;;
2021/06/26 16:59:18;;;;;;;10.70;5.50;;;;;;;18.75;85.93;99092.31;4142121;80;9999632;-78
2021/06/26 17:05:19;;;;;;;7.85;6.12;;;;;;;18.64;86.31;99090.36;4262656;82;21049;-77
2021/06/26 17:11:21;;;;;;;8.90;6.08;;;;;;;18.57;86.72;99084.34;4264931;82;20969;-77
2021/06/26 17:17:22;;;;;;;13.30;6.40;;;;;;;18.67;86.73;99079.20;4259246;82;21116;-77
2021/06/26 17:23:23;;;;;;;8.78;6.15;;;;;;;18.81;87.19;99074.59;4267807;82;20997;-75
2021/06/26 17:29:24;;;;;;;10.13;7.12;;;;;;;18.78;87.20;99072.67;4256411;82;21375;-77
2021/06/26 17:35:26;;;;;;;9.65;6.40;;;;;;;18.69;87.55;99073.23;4256324;82;21484;-77
2021/06/26 17:41:27;;;;;;;8.50;5.78;;;;;;;18.66;87.89;99074.88;4265574;82;20997;-76
2021/06/26 17:47:29;;;;;;;9.85;6.25;;;;;;;18.86;87.94;99083.77;4263382;82;21061;-76
2021/06/26 17:53:30;;;;;;;10.20;7.85;;;;;;;18.97;88.05;99089.88;4264660;82;21048;-76
2021/06/26 17:59:32;;;;;;;13.83;7.12;;;;;;;19.02;88.09;99097.70;4262721;82;20966;-75
2021/06/26 18:05:35;;;;;;;10.28;7.50;;;;;;;18.99;88.30;99096.58;4263153;82;22035;-76
2021/06/26 18:11:38;;;;;;;10.03;7.67;;;;;;;18.94;88.09;99101.23;4264761;82;21048;-76
2021/06/26 18:17:40;;;;;;;8.70;7.53;;;;;;;18.84;88.60;99109.78;4262476;82;21029;-76
2021/06/26 18:23:41;;;;;;;17.50;8.60;;;;;;;18.85;88.63;99109.36;4264936;82;21044;-77
2021/06/26 18:29:43;;;;;;;13.43;8.03;;;;;;;18.81;88.74;99106.48;4263246;82;20995;-76
2021/06/26 18:35:44;;;;;;;15.23;8.28;;;;;;;18.82;88.66;99123.29;4261280;82;21084;-76
2021/06/26 18:41:46;;;;;;;17.62;7.58;;;;;;;18.56;88.37;99124.97;4259579;82;20973;-76
2021/06/26 18:47:51;;;;;;;9.70;7.83;;;;;;;18.48;89.02;99140.95;4216277;82;21056;-77
2021/06/26 18:53:54;;;;;;;9.13;7.37;;;;;;;18.28;89.09;99154.55;4269011;83;20982;-76
2021/06/26 18:59:55;;;;;;;13.85;8.05;;;;;;;18.12;89.09;99157.22;4140627;82;9999760;-77
2021/06/26 19:05:57;;;;;;;12.80;8.25;;;;;;;17.91;89.52;99163.88;4263976;82;21512;-76
2021/06/26 19:11:59;;;;;;;12.25;9.73;;;;;;;17.79;89.91;99165.83;4255172;82;21005;-76
2021/06/26 19:18:00;;;;;;;15.65;9.75;;;;;;;17.74;90.34;99185.70;4262869;82;21021;-76
2021/06/26 19:24:01;;;;;;;18.48;11.63;;;;;;;17.75;90.56;99192.80;4260643;82;20981;-77
2021/06/26 19:30:05;;;;;;;13.43;10.65;;;;;;;17.82;90.44;99191.30;4259006;82;20985;-76
2021/06/26 19:36:07;;;;;;;17.45;10.20;;;;;;;17.69;90.38;99193.69;4260576;82;21084;-76
2021/06/26 19:42:08;;;;;;;14.03;10.35;;;;;;;17.53;90.34;99196.27;4263942;82;21452;-76
2021/06/26 19:48:10;;;;;;;14.03;10.30;;;;;;;17.60;91.11;99200.34;4250894;82;21093;-76
2021/06/26 19:54:11;;;;;;;15.68;10.48;;;;;;;17.58;91.06;99204.12;4261829;82;21107;-79
2021/06/26 20:00:17;;;;;;;18.77;9.25;;;;;;;17.69;91.35;99206.14;4252619;82;21077;-77
2021/06/26 20:06:19;;;;;;;20.88;11.57;;;;;;;17.74;91.40;99218.94;4258856;81;21065;-76
2021/06/26 20:12:20;;;;;;;16.00;11.97;;;;;;;17.70;90.99;99220.95;4262236;82;21024;-79
2021/06/26 20:18:21;;;;;;;18.85;11.48;;;;;;;17.50;91.30;99219.25;4257117;82;21040;-77
2021/06/26 20:24:22;;;;;;;14.80;11.12;;;;;;;17.33;91.81;99214.70;4094277;85;21484;-76
2021/06/26 20:30:25;;;;;;;17.67;12.23;;;;;;;17.27;92.00;99217.15;4168726;84;20978;-80
2021/06/26 20:36:29;;;;;;;14.55;11.08;;;;;;;17.20;92.61;99216.63;4095989;85;21085;-79
2021/06/26 20:42:30;;;;;;;16.62;11.18;;;;;;;17.28;92.72;99215.94;4094321;85;21058;-76
2021/06/26 20:48:32;;;;;;;16.45;11.38;;;;;;;17.43;93.02;99211.02;4173464;84;21041;-76
2021/06/26 20:54:33;;;;;;;19.00;11.57;;;;;;;17.56;92.92;99218.97;4171704;84;20997;-76
2021/06/26 21:00:35;;;;;;;18.23;11.12;;;;;;;17.45;92.59;99222.47;4166676;84;21061;-76
2021/06/26 21:06:36;;;;;;;15.83;10.88;;;;;;;17.51;92.85;99212.53;4097949;85;21057;-76
2021/06/26 21:12:37;;;;;;;17.42;9.65;;;;;;;17.46;92.93;99216.52;4172020;84;21066;-76
2021/06/26 21:18:38;;;;;;;12.90;10.88;;;;;;;17.52;93.00;99218.24;4171688;84;21056;-76
2021/06/26 21:24:40;;;;;;;15.13;11.60;;;;;;;17.56;92.74;99206.52;4176023;84;21094;-77
2021/06/26 21:30:41;;;;;;;15.60;10.65;;;;;;;17.28;92.62;99199.34;4096750;85;21029;-76
2021/06/26 21:36:43;;;;;;;12.18;10.23;;;;;;;17.37;93.30;99204.39;4169270;84;21081;-76
2021/06/26 21:42:46;;;;;;;20.08;9.43;;;;;;;17.28;93.04;99196.58;4169851;84;21080;-76
2021/06/26 21:48:47;;;;;;;14.28;9.63;;;;;;;17.39;93.44;99187.54;4168620;84;21354;-76
2021/06/26 21:54:49;;;;;;;13.55;9.15;;;;;;;17.48;93.23;99196.77;4168580;84;21078;-76
2021/06/26 22:00:52;;;;;;;12.53;10.23;;;;;;;17.50;93.20;99190.19;4170877;84;21086;-76
2021/06/26 22:06:53;;;;;;;15.32;10.05;;;;;;;17.49;92.69;99184.48;4171142;84;21053;-76
2021/06/26 22:12:55;;;;;;;19.32;10.03;;;;;;;17.38;93.00;99192.11;4174376;82;21585;-76
2021/06/26 22:18:56;;;;;;;15.35;10.10;;;;;;;17.19;92.91;99184.61;4179836;83;22728;-76
2021/06/26 22:24:58;;;;;;;14.03;10.10;;;;;;;17.23;93.01;99179.66;4193681;83;21039;-76
2021/06/26 22:31:00;;;;;;;23.25;11.70;;;;;;;17.21;92.80;99182.23;4195098;83;21058;-75
2021/06/26 22:37:01;;;;;;;14.83;11.15;;;;;;;17.22;93.12;99185.79;4191084;83;21079;-76
2021/06/26 22:43:02;;;;;;;10.70;9.53;;;;;;;17.19;93.16;99189.38;4193707;83;21039;-76
2021/06/26 22:49:04;;;;;;;14.80;10.63;;;;;;;17.17;93.06;99205.02;4201925;82;21094;-77
2021/06/26 22:55:08;;;;;;;16.12;10.75;;;;;;;17.19;93.11;99191.53;4192206;83;21010;-76
2021/06/26 23:01:09;;;;;;;15.43;10.78;;;;;;;17.18;93.05;99205.78;4208807;83;21563;-76
2021/06/26 23:07:11;;;;;;;14.98;11.73;;;;;;;17.14;92.63;99213.34;4270257;82;21552;-76
2021/06/26 23:13:13;;;;;;;15.05;11.35;;;;;;;16.82;92.56;99214.28;4261223;82;21013;-76
2021/06/26 23:19:14;;;;;;;13.68;10.80;;;;;;;16.48;92.77;99205.16;4261250;82;21068;-76
2021/06/26 23:25:16;;;;;;;15.08;10.75;;;;;;;16.47;93.17;99203.01;4091704;85;21045;-77
2021/06/26 23:31:17;;;;;;;16.20;10.25;;;;;;;16.43;93.05;99203.59;4149975;84;21033;-76
2021/06/26 23:37:19;;;;;;;14.20;10.75;;;;;;;16.51;93.75;99209.86;4150389;84;21053;-78
2021/06/26 23:43:21;;;;;;;21.12;10.85;;;;;;;16.67;93.72;99201.81;4153122;84;21030;-77
2021/06/26 23:49:22;;;;;;;14.45;10.40;;;;;;;16.70;93.50;99210.67;4151516;84;21563;-77
2021/06/26 23:55:24;;;;;;;15.05;10.35;;;;;;;16.68;93.40;99194.49;4154679;84;21076;-76
